Terminal Aerodrome Forecast
Issued by NWS Wilmington, OH

Current Version | Previous Version | Text Only | Print | Product List | Glossary Off
Versions: 1 2 3 4 5 6 7 8 9 10 11 12 13 14 15 16 17 18

396
FTUS41 KILN 181120
TAFCMH
TAF
KCMH 181120Z 1812/1912 19010G20KT 5SM -SHRA BR OVC025 WS020/21055KT
     FM181600 19012G25KT P6SM VCSH OVC015 WS020/22055KT
     FM181900 20018G32KT P6SM VCSH OVC015 WS020/22055KT
     FM190000 22018G32KT 2SM +SHRA BR VCTS OVC012CB WS020/22055KT
     FM190200 29018G35KT 4SM -SHRA BR OVC012
     FM190600 30018G32KT P6SM OVC015
     FM190900 30015G25KT P6SM OVC018=

USA.gov is the U.S. government's official web portal to all federal, state and local government web resources and services.